Airfield :
LOGIN :

Register | Disclaimer

   EN    FR    IT 

 










Legend :    VFR   Marginal VFR   IFR   Intensive IFR   Very Intensive IFR
Visi :
Ceiling :
>= 8 km
>= 3000ft
5 to 8 km
1000 to 3000 ft
1500m to 5 km
500 to 1000 ft
800 to 1500m
200 to 500 ft
< 800m
< 200 ft
Symbols :   Thunderstorms  Fog  Heavy snow  Heavy precipitations  Wind > 20 kt
SIGMETs :     Misc.  Thunderstorms  Icing  Turbulence  Mountain Waves  Volcanic Ashes







- Airport Elevation : 3 ft
- IATA code : LWR


EHLW - Leuuwarden Air Base

CURRENT METAR :
  • 201955Z AUTO 33005KT 290V350 2900 R23/2800N BR NCD 10/09 Q1022 YLO

EXPIRED METARs :
  • 201925Z AUTO 33007KT 2900 R23/P3000N BR NCD 11/09 Q1022 YLO
  • 201855Z AUTO 33007KT 290V360 3400 R23/P3000N BR NCD 12/10 Q1021 YLO
  • 201832Z AUTO 33008KT 280V350 3600 R23/P3000N HZ NCD 13/10 Q1021 YLO
  • 201826Z AUTO 32007KT 280V350 3700 HZ NCD 13/10 Q1021 GRN
  • 201825Z AUTO 33007KT 300V360 3600 R23/P3000U HZ NCD 13/10 Q1021 YLO
  • 201755Z AUTO 33008KT 280V360 4100 HZ NCD 15/11 Q1021 GRN
  • 201725Z AUTO 26005KT 7000 HZ NCD 18/12 Q1021 WHT

TAF TAF EHLW
Valid from the 20 at 09:00 until the 20 at 21:00 UTC


200825Z 2009/2021 26006KT 8000 NSC
BECMG 2015/2018 33008KT
No reported NOTAMs for that airfield.



MET'MAP, your aeronautical weather chart ! - Copyright ORBIFLY December 2007 - Disclaimer

ORBIFLY MET'MAP TEAM :

Programming & Development : Alexandra Zaïnal
Concept & Development : Baudouin d'Aumeries
Co-Development & Prog : Marc-Olivier Méhu
Technical & hardware support : Manuel Goepfert

Contact : metmap@orbifly.com




SOURCES & CREDITS :

   NOAA